sensor_id;sensor_type;location;lat;lon;timestamp;temperature;humidity
25582;DHT22;13462;50.764;4.332;2023-07-08T00:00:24;20.50;99.90
25582;DHT22;13462;50.764;4.332;2023-07-08T00:02:50;20.40;99.90
25582;DHT22;13462;50.764;4.332;2023-07-08T00:05:18;20.30;99.90
25582;DHT22;13462;50.764;4.332;2023-07-08T00:07:44;20.30;99.90
25582;DHT22;13462;50.764;4.332;2023-07-08T00:12:42;20.40;99.90
25582;DHT22;13462;50.764;4.332;2023-07-08T00:15:09;20.40;99.90
25582;DHT22;13462;50.764;4.332;2023-07-08T00:17:35;20.40;99.90
25582;DHT22;13462;50.764;4.332;2023-07-08T00:20:00;20.40;99.90
25582;DHT22;13462;50.764;4.332;2023-07-08T00:22:26;20.30;99.90
25582;DHT22;13462;50.764;4.332;2023-07-08T00:24:51;20.30;99.90
25582;DHT22;13462;50.764;4.332;2023-07-08T00:27:17;20.30;99.90
25582;DHT22;13462;50.764;4.332;2023-07-08T00:29:43;20.30;99.90
25582;DHT22;13462;50.764;4.332;2023-07-08T00:32:15;20.40;99.90
25582;DHT22;13462;50.764;4.332;2023-07-08T00:34:41;20.40;99.90
25582;DHT22;13462;50.764;4.332;2023-07-08T00:37:12;20.40;99.90
25582;DHT22;13462;50.764;4.332;2023-07-08T00:39:38;20.40;99.90
25582;DHT22;13462;50.764;4.332;2023-07-08T00:42:15;20.30;99.90
25582;DHT22;13462;50.764;4.332;2023-07-08T00:44:41;20.20;99.90
25582;DHT22;13462;50.764;4.332;2023-07-08T00:47:11;20.30;99.90
25582;DHT22;13462;50.764;4.332;2023-07-08T00:49:45;20.30;99.90
25582;DHT22;13462;50.764;4.332;2023-07-08T00:52:19;20.30;99.90
25582;DHT22;13462;50.764;4.332;2023-07-08T00:54:46;20.40;99.90
25582;DHT22;13462;50.764;4.332;2023-07-08T00:57:14;20.30;99.90
25582;DHT22;13462;50.764;4.332;2023-07-08T00:59:46;20.30;99.90
25582;DHT22;13462;50.764;4.332;2023-07-08T01:02:14;20.30;99.90
25582;DHT22;13462;50.764;4.332;2023-07-08T01:04:58;20.30;99.90
25582;DHT22;13462;50.764;4.332;2023-07-08T01:07:26;20.30;99.90
25582;DHT22;13462;50.764;4.332;2023-07-08T01:10:19;20.20;99.90
25582;DHT22;13462;50.764;4.332;2023-07-08T01:12:52;20.20;99.90
25582;DHT22;13462;50.764;4.332;2023-07-08T01:15:21;20.10;99.90
25582;DHT22;13462;50.764;4.332;2023-07-08T01:17:48;19.90;99.90
25582;DHT22;13462;50.764;4.332;2023-07-08T01:20:19;19.80;99.90
25582;DHT22;13462;50.764;4.332;2023-07-08T01:22:44;19.60;99.90
25582;DHT22;13462;50.764;4.332;2023-07-08T01:25:11;19.50;99.90
25582;DHT22;13462;50.764;4.332;2023-07-08T01:27:41;19.30;99.90
25582;DHT22;13462;50.764;4.332;2023-07-08T01:30:08;19.10;99.90
25582;DHT22;13462;50.764;4.332;2023-07-08T01:32:37;19.00;99.90
25582;DHT22;13462;50.764;4.332;2023-07-08T01:35:04;18.90;99.90
25582;DHT22;13462;50.764;4.332;2023-07-08T01:37:37;18.80;99.90
25582;DHT22;13462;50.764;4.332;2023-07-08T01:40:34;18.70;99.90
25582;DHT22;13462;50.764;4.332;2023-07-08T01:43:01;18.60;99.90
25582;DHT22;13462;50.764;4.332;2023-07-08T01:45:32;18.50;99.90
25582;DHT22;13462;50.764;4.332;2023-07-08T01:48:04;18.40;99.90
25582;DHT22;13462;50.764;4.332;2023-07-08T01:50:32;18.30;99.90
25582;DHT22;13462;50.764;4.332;2023-07-08T01:53:02;18.30;99.90
25582;DHT22;13462;50.764;4.332;2023-07-08T01:55:29;18.40;99.90
25582;DHT22;13462;50.764;4.332;2023-07-08T01:57:55;18.40;99.90
25582;DHT22;13462;50.764;4.332;2023-07-08T02:00:22;18.40;99.90
25582;DHT22;13462;50.764;4.332;2023-07-08T02:02:48;18.40;99.90
25582;DHT22;13462;50.764;4.332;2023-07-08T02:05:14;18.40;99.90
25582;DHT22;13462;50.764;4.332;2023-07-08T02:07:40;18.30;99.90
25582;DHT22;13462;50.764;4.332;2023-07-08T02:10:06;18.30;99.90
25582;DHT22;13462;50.764;4.332;2023-07-08T02:12:32;18.30;99.90
25582;DHT22;13462;50.764;4.332;2023-07-08T02:15:00;18.20;99.90
25582;DHT22;13462;50.764;4.332;2023-07-08T02:17:26;18.10;99.90
25582;DHT22;13462;50.764;4.332;2023-07-08T02:19:54;18.10;99.90
25582;DHT22;13462;50.764;4.332;2023-07-08T02:22:20;17.90;99.90
25582;DHT22;13462;50.764;4.332;2023-07-08T02:24:45;17.90;99.90
25582;DHT22;13462;50.764;4.332;2023-07-08T02:27:11;17.90;99.90
25582;DHT22;13462;50.764;4.332;2023-07-08T02:29:37;17.90;99.90
25582;DHT22;13462;50.764;4.332;2023-07-08T02:32:04;17.80;99.90
25582;DHT22;13462;50.764;4.332;2023-07-08T02:34:29;17.70;99.90
25582;DHT22;13462;50.764;4.332;2023-07-08T02:36:55;17.70;99.90
25582;DHT22;13462;50.764;4.332;2023-07-08T02:39:22;17.60;99.90
25582;DHT22;13462;50.764;4.332;2023-07-08T02:41:48;17.50;99.90
25582;DHT22;13462;50.764;4.332;2023-07-08T02:44:13;17.50;99.90
25582;DHT22;13462;50.764;4.332;2023-07-08T02:46:39;17.50;99.90
25582;DHT22;13462;50.764;4.332;2023-07-08T02:49:04;17.40;99.90
25582;DHT22;13462;50.764;4.332;2023-07-08T02:51:31;17.30;99.90
25582;DHT22;13462;50.764;4.332;2023-07-08T02:53:56;17.40;99.90
25582;DHT22;13462;50.764;4.332;2023-07-08T02:56:22;17.40;99.90
25582;DHT22;13462;50.764;4.332;2023-07-08T02:58:48;17.40;99.90
25582;DHT22;13462;50.764;4.332;2023-07-08T03:01:14;17.40;99.90
25582;DHT22;13462;50.764;4.332;2023-07-08T03:03:46;17.30;99.90
25582;DHT22;13462;50.764;4.332;2023-07-08T03:06:13;17.20;99.90
25582;DHT22;13462;50.764;4.332;2023-07-08T03:08:39;17.30;99.90
25582;DHT22;13462;50.764;4.332;2023-07-08T03:11:06;17.40;99.90
25582;DHT22;13462;50.764;4.332;2023-07-08T03:13:33;17.30;99.90
25582;DHT22;13462;50.764;4.332;2023-07-08T03:15:59;17.30;99.90
25582;DHT22;13462;50.764;4.332;2023-07-08T03:18:25;17.30;99.90
25582;DHT22;13462;50.764;4.332;2023-07-08T03:20:53;17.30;99.90
25582;DHT22;13462;50.764;4.332;2023-07-08T03:23:21;17.30;99.90
25582;DHT22;13462;50.764;4.332;2023-07-08T03:25:47;17.20;99.90
25582;DHT22;13462;50.764;4.332;2023-07-08T03:28:13;17.20;99.90
25582;DHT22;13462;50.764;4.332;2023-07-08T03:30:44;17.30;99.90
25582;DHT22;13462;50.764;4.332;2023-07-08T03:33:11;17.20;99.90
25582;DHT22;13462;50.764;4.332;2023-07-08T03:35:37;17.20;99.90
25582;DHT22;13462;50.764;4.332;2023-07-08T03:38:04;17.10;99.90
25582;DHT22;13462;50.764;4.332;2023-07-08T03:40:30;17.10;99.90
25582;DHT22;13462;50.764;4.332;2023-07-08T03:42:56;17.10;99.90
25582;DHT22;13462;50.764;4.332;2023-07-08T03:45:21;17.10;99.90
25582;DHT22;13462;50.764;4.332;2023-07-08T03:47:47;17.20;99.90
25582;DHT22;13462;50.764;4.332;2023-07-08T03:50:20;17.20;99.90
25582;DHT22;13462;50.764;4.332;2023-07-08T03:52:46;17.20;99.90
25582;DHT22;13462;50.764;4.332;2023-07-08T03:55:13;17.10;99.90
25582;DHT22;13462;50.764;4.332;2023-07-08T03:57:39;17.10;99.90
25582;DHT22;13462;50.764;4.332;2023-07-08T04:00:06;17.10;99.90
25582;DHT22;13462;50.764;4.332;2023-07-08T04:02:38;17.10;99.90
25582;DHT22;13462;50.764;4.332;2023-07-08T04:05:05;17.10;99.90
25582;DHT22;13462;50.764;4.332;2023-07-08T04:07:31;17.20;99.90
25582;DHT22;13462;50.764;4.332;2023-07-08T04:09:56;17.10;99.90
25582;DHT22;13462;50.764;4.332;2023-07-08T04:12:22;17.10;99.90
25582;DHT22;13462;50.764;4.332;2023-07-08T04:14:47;17.10;99.90
25582;DHT22;13462;50.764;4.332;2023-07-08T04:17:14;17.10;99.90
25582;DHT22;13462;50.764;4.332;2023-07-08T04:19:39;17.20;99.90
25582;DHT22;13462;50.764;4.332;2023-07-08T04:22:05;17.30;99.90
25582;DHT22;13462;50.764;4.332;2023-07-08T04:24:31;17.30;99.90
25582;DHT22;13462;50.764;4.332;2023-07-08T04:26:57;17.40;99.90
25582;DHT22;13462;50.764;4.332;2023-07-08T04:29:23;17.40;99.90
25582;DHT22;13462;50.764;4.332;2023-07-08T04:31:49;17.50;99.90
25582;DHT22;13462;50.764;4.332;2023-07-08T04:34:15;17.50;99.90
25582;DHT22;13462;50.764;4.332;2023-07-08T04:36:42;17.60;99.90
25582;DHT22;13462;50.764;4.332;2023-07-08T04:39:09;17.70;99.90
25582;DHT22;13462;50.764;4.332;2023-07-08T04:41:38;17.80;99.90
25582;DHT22;13462;50.764;4.332;2023-07-08T04:44:12;17.90;99.90
25582;DHT22;13462;50.764;4.332;2023-07-08T04:46:52;18.10;99.90
25582;DHT22;13462;50.764;4.332;2023-07-08T04:49:20;18.40;99.90
25582;DHT22;13462;50.764;4.332;2023-07-08T04:51:45;18.60;99.90
25582;DHT22;13462;50.764;4.332;2023-07-08T04:54:11;18.80;99.90
25582;DHT22;13462;50.764;4.332;2023-07-08T04:59:08;19.30;99.90
25582;DHT22;13462;50.764;4.332;2023-07-08T05:01:34;19.50;99.90
25582;DHT22;13462;50.764;4.332;2023-07-08T05:04:00;19.70;99.90
25582;DHT22;13462;50.764;4.332;2023-07-08T05:06:26;19.80;99.90
25582;DHT22;13462;50.764;4.332;2023-07-08T05:08:52;20.10;99.90
25582;DHT22;13462;50.764;4.332;2023-07-08T05:11:17;20.20;99.90
25582;DHT22;13462;50.764;4.332;2023-07-08T05:13:43;20.30;99.90
25582;DHT22;13462;50.764;4.332;2023-07-08T05:16:08;20.40;99.90
25582;DHT22;13462;50.764;4.332;2023-07-08T05:18:34;20.50;99.90
25582;DHT22;13462;50.764;4.332;2023-07-08T05:20:59;20.50;99.90
25582;DHT22;13462;50.764;4.332;2023-07-08T05:23:25;20.70;99.90
25582;DHT22;13462;50.764;4.332;2023-07-08T05:25:50;20.90;99.90
25582;DHT22;13462;50.764;4.332;2023-07-08T05:28:16;21.00;99.90
25582;DHT22;13462;50.764;4.332;2023-07-08T05:30:42;21.20;99.90
25582;DHT22;13462;50.764;4.332;2023-07-08T05:33:08;21.30;99.90
25582;DHT22;13462;50.764;4.332;2023-07-08T05:35:34;21.40;99.90
25582;DHT22;13462;50.764;4.332;2023-07-08T05:38:01;21.60;99.90
25582;DHT22;13462;50.764;4.332;2023-07-08T05:40:27;21.70;99.90
25582;DHT22;13462;50.764;4.332;2023-07-08T05:42:52;21.80;99.90
25582;DHT22;13462;50.764;4.332;2023-07-08T05:45:18;22.00;99.90
25582;DHT22;13462;50.764;4.332;2023-07-08T05:47:43;22.10;99.90
25582;DHT22;13462;50.764;4.332;2023-07-08T05:50:09;22.30;99.90
25582;DHT22;13462;50.764;4.332;2023-07-08T05:52:35;22.50;99.90
25582;DHT22;13462;50.764;4.332;2023-07-08T05:55:00;23.10;99.90
25582;DHT22;13462;50.764;4.332;2023-07-08T05:57:26;24.10;99.90
25582;DHT22;13462;50.764;4.332;2023-07-08T05:59:52;25.20;99.90
25582;DHT22;13462;50.764;4.332;2023-07-08T06:02:18;26.20;98.70
25582;DHT22;13462;50.764;4.332;2023-07-08T06:04:47;27.20;97.00
25582;DHT22;13462;50.764;4.332;2023-07-08T06:07:12;28.30;95.60
25582;DHT22;13462;50.764;4.332;2023-07-08T06:09:38;29.40;95.30
25582;DHT22;13462;50.764;4.332;2023-07-08T06:12:04;30.50;91.20
25582;DHT22;13462;50.764;4.332;2023-07-08T06:14:29;31.00;88.70
25582;DHT22;13462;50.764;4.332;2023-07-08T06:16:57;31.10;80.60
25582;DHT22;13462;50.764;4.332;2023-07-08T06:19:22;31.50;80.10
25582;DHT22;13462;50.764;4.332;2023-07-08T06:21:48;31.80;79.60
25582;DHT22;13462;50.764;4.332;2023-07-08T06:24:13;31.90;78.50
25582;DHT22;13462;50.764;4.332;2023-07-08T06:26:39;32.60;79.10
25582;DHT22;13462;50.764;4.332;2023-07-08T06:29:04;33.10;75.10
25582;DHT22;13462;50.764;4.332;2023-07-08T06:31:30;33.30;73.60
25582;DHT22;13462;50.764;4.332;2023-07-08T06:33:56;33.60;73.10
25582;DHT22;13462;50.764;4.332;2023-07-08T06:36:22;34.20;70.00
25582;DHT22;13462;50.764;4.332;2023-07-08T06:38:48;34.80;69.20
25582;DHT22;13462;50.764;4.332;2023-07-08T06:41:13;35.10;67.30
25582;DHT22;13462;50.764;4.332;2023-07-08T06:43:39;34.80;66.80
25582;DHT22;13462;50.764;4.332;2023-07-08T06:46:05;34.10;66.20
25582;DHT22;13462;50.764;4.332;2023-07-08T06:48:32;33.20;68.30
25582;DHT22;13462;50.764;4.332;2023-07-08T06:50:58;33.30;69.30
25582;DHT22;13462;50.764;4.332;2023-07-08T06:53:24;33.20;67.50
25582;DHT22;13462;50.764;4.332;2023-07-08T06:55:50;32.80;67.60
25582;DHT22;13462;50.764;4.332;2023-07-08T06:58:16;32.60;68.60
25582;DHT22;13462;50.764;4.332;2023-07-08T07:00:43;32.80;67.60
25582;DHT22;13462;50.764;4.332;2023-07-08T07:03:09;33.10;68.00
25582;DHT22;13462;50.764;4.332;2023-07-08T07:05:34;33.70;66.50
25582;DHT22;13462;50.764;4.332;2023-07-08T07:08:00;34.40;66.20
25582;DHT22;13462;50.764;4.332;2023-07-08T07:10:26;34.90;66.70
25582;DHT22;13462;50.764;4.332;2023-07-08T07:12:52;35.70;65.20
25582;DHT22;13462;50.764;4.332;2023-07-08T07:15:17;36.90;64.40
25582;DHT22;13462;50.764;4.332;2023-07-08T07:17:43;37.50;59.70
25582;DHT22;13462;50.764;4.332;2023-07-08T07:20:08;38.40;60.20
25582;DHT22;13462;50.764;4.332;2023-07-08T07:22:34;38.60;59.00
25582;DHT22;13462;50.764;4.332;2023-07-08T07:25:01;38.40;57.70
25582;DHT22;13462;50.764;4.332;2023-07-08T07:27:26;38.40;58.50
25582;DHT22;13462;50.764;4.332;2023-07-08T07:29:52;38.20;55.80
25582;DHT22;13462;50.764;4.332;2023-07-08T07:32:22;37.80;54.90
25582;DHT22;13462;50.764;4.332;2023-07-08T07:34:48;37.40;55.20
25582;DHT22;13462;50.764;4.332;2023-07-08T07:37:16;36.80;55.40
25582;DHT22;13462;50.764;4.332;2023-07-08T07:39:42;36.80;55.80
25582;DHT22;13462;50.764;4.332;2023-07-08T07:42:08;36.80;56.40
25582;DHT22;13462;50.764;4.332;2023-07-08T07:44:34;36.90;56.40
25582;DHT22;13462;50.764;4.332;2023-07-08T07:47:01;37.20;55.70
25582;DHT22;13462;50.764;4.332;2023-07-08T07:49:27;37.50;55.70
25582;DHT22;13462;50.764;4.332;2023-07-08T07:51:52;37.40;56.20
25582;DHT22;13462;50.764;4.332;2023-07-08T07:54:18;37.30;52.90
25582;DHT22;13462;50.764;4.332;2023-07-08T07:56:43;37.20;53.30
25582;DHT22;13462;50.764;4.332;2023-07-08T07:59:10;36.60;53.90
25582;DHT22;13462;50.764;4.332;2023-07-08T08:01:36;37.10;53.50
25582;DHT22;13462;50.764;4.332;2023-07-08T08:04:02;37.40;53.80
25582;DHT22;13462;50.764;4.332;2023-07-08T08:06:28;37.10;52.90
25582;DHT22;13462;50.764;4.332;2023-07-08T08:08:53;36.90;52.20
25582;DHT22;13462;50.764;4.332;2023-07-08T08:11:19;37.40;53.10
25582;DHT22;13462;50.764;4.332;2023-07-08T08:13:45;37.60;53.50
25582;DHT22;13462;50.764;4.332;2023-07-08T08:16:10;37.60;51.00
25582;DHT22;13462;50.764;4.332;2023-07-08T08:18:36;37.50;51.40
25582;DHT22;13462;50.764;4.332;2023-07-08T08:21:02;38.10;51.80
25582;DHT22;13462;50.764;4.332;2023-07-08T08:23:28;38.30;52.10
25582;DHT22;13462;50.764;4.332;2023-07-08T08:25:54;38.80;52.20
25582;DHT22;13462;50.764;4.332;2023-07-08T08:28:19;38.90;50.60
25582;DHT22;13462;50.764;4.332;2023-07-08T08:30:51;38.20;50.20
25582;DHT22;13462;50.764;4.332;2023-07-08T08:33:17;38.70;52.50
25582;DHT22;13462;50.764;4.332;2023-07-08T08:35:43;38.40;49.80
25582;DHT22;13462;50.764;4.332;2023-07-08T08:38:09;38.70;51.80
25582;DHT22;13462;50.764;4.332;2023-07-08T08:40:35;38.80;49.50
25582;DHT22;13462;50.764;4.332;2023-07-08T08:43:03;39.10;50.00
25582;DHT22;13462;50.764;4.332;2023-07-08T08:45:36;39.20;48.40
25582;DHT22;13462;50.764;4.332;2023-07-08T08:48:05;39.90;49.40
25582;DHT22;13462;50.764;4.332;2023-07-08T08:50:58;40.60;51.30
25582;DHT22;13462;50.764;4.332;2023-07-08T08:53:26;41.10;47.90
25582;DHT22;13462;50.764;4.332;2023-07-08T08:58:53;42.40;46.20
25582;DHT22;13462;50.764;4.332;2023-07-08T09:01:21;42.80;47.20
25582;DHT22;13462;50.764;4.332;2023-07-08T09:03:54;43.60;45.70
25582;DHT22;13462;50.764;4.332;2023-07-08T09:06:29;44.10;46.90
25582;DHT22;13462;50.764;4.332;2023-07-08T09:08:57;44.70;45.60
25582;DHT22;13462;50.764;4.332;2023-07-08T09:12:04;44.40;43.60
25582;DHT22;13462;50.764;4.332;2023-07-08T09:14:33;44.70;42.80
25582;DHT22;13462;50.764;4.332;2023-07-08T09:17:41;45.30;43.60
25582;DHT22;13462;50.764;4.332;2023-07-08T09:27:41;45.90;39.60
25582;DHT22;13462;50.764;4.332;2023-07-08T09:30:15;45.30;40.00
25582;DHT22;13462;50.764;4.332;2023-07-08T09:32:41;44.90;37.70
25582;DHT22;13462;50.764;4.332;2023-07-08T09:35:08;44.90;39.80
25582;DHT22;13462;50.764;4.332;2023-07-08T09:37:36;44.90;40.50
25582;DHT22;13462;50.764;4.332;2023-07-08T09:40:17;45.10;42.50
25582;DHT22;13462;50.764;4.332;2023-07-08T09:42:46;45.40;40.00
25582;DHT22;13462;50.764;4.332;2023-07-08T09:45:17;45.20;39.80
25582;DHT22;13462;50.764;4.332;2023-07-08T09:47:43;45.70;38.50
25582;DHT22;13462;50.764;4.332;2023-07-08T09:50:22;45.70;39.90
25582;DHT22;13462;50.764;4.332;2023-07-08T09:52:50;45.70;39.30
25582;DHT22;13462;50.764;4.332;2023-07-08T09:55:16;45.10;40.00
25582;DHT22;13462;50.764;4.332;2023-07-08T09:57:44;45.10;39.70
25582;DHT22;13462;50.764;4.332;2023-07-08T10:00:14;45.20;40.30
25582;DHT22;13462;50.764;4.332;2023-07-08T10:02:54;45.40;40.10
25582;DHT22;13462;50.764;4.332;2023-07-08T10:05:30;46.50;40.60
25582;DHT22;13462;50.764;4.332;2023-07-08T10:07:58;46.90;39.30
25582;DHT22;13462;50.764;4.332;2023-07-08T10:10:36;46.80;38.00
25582;DHT22;13462;50.764;4.332;2023-07-08T10:13:19;46.00;40.40
25582;DHT22;13462;50.764;4.332;2023-07-08T10:15:53;45.80;41.20
25582;DHT22;13462;50.764;4.332;2023-07-08T10:18:27;45.30;39.60
25582;DHT22;13462;50.764;4.332;2023-07-08T10:21:26;45.00;39.80
25582;DHT22;13462;50.764;4.332;2023-07-08T10:26:43;45.30;39.20
25582;DHT22;13462;50.764;4.332;2023-07-08T11:02:39;44.80;41.30
25582;DHT22;13462;50.764;4.332;2023-07-08T11:08:24;44.70;40.30
25582;DHT22;13462;50.764;4.332;2023-07-08T11:13:28;44.30;43.40
25582;DHT22;13462;50.764;4.332;2023-07-08T11:16:14;45.30;40.90
25582;DHT22;13462;50.764;4.332;2023-07-08T11:21:50;44.50;38.50
25582;DHT22;13462;50.764;4.332;2023-07-08T11:26:57;44.00;39.50
25582;DHT22;13462;50.764;4.332;2023-07-08T11:31:54;43.50;41.30
25582;DHT22;13462;50.764;4.332;2023-07-08T11:34:21;43.30;40.60
25582;DHT22;13462;50.764;4.332;2023-07-08T11:36:48;43.40;41.20
25582;DHT22;13462;50.764;4.332;2023-07-08T11:39:33;43.10;41.90
25582;DHT22;13462;50.764;4.332;2023-07-08T11:44:44;43.20;44.20
25582;DHT22;13462;50.764;4.332;2023-07-08T11:47:17;44.20;41.90
25582;DHT22;13462;50.764;4.332;2023-07-08T11:49:43;44.50;39.90
25582;DHT22;13462;50.764;4.332;2023-07-08T11:52:16;44.20;41.20
25582;DHT22;13462;50.764;4.332;2023-07-08T11:54:47;44.40;40.40
25582;DHT22;13462;50.764;4.332;2023-07-08T11:57:28;43.70;39.70
25582;DHT22;13462;50.764;4.332;2023-07-08T12:00:15;43.00;41.80
25582;DHT22;13462;50.764;4.332;2023-07-08T12:02:50;42.90;41.20
25582;DHT22;13462;50.764;4.332;2023-07-08T12:05:16;43.20;41.40
25582;DHT22;13462;50.764;4.332;2023-07-08T12:07:47;43.00;44.90
25582;DHT22;13462;50.764;4.332;2023-07-08T12:10:17;43.80;44.10
25582;DHT22;13462;50.764;4.332;2023-07-08T12:12:44;43.20;42.80
25582;DHT22;13462;50.764;4.332;2023-07-08T12:15:23;42.60;42.20
25582;DHT22;13462;50.764;4.332;2023-07-08T12:20:40;40.40;46.30
25582;DHT22;13462;50.764;4.332;2023-07-08T12:23:19;38.80;47.80
25582;DHT22;13462;50.764;4.332;2023-07-08T12:25:46;37.70;49.20
25582;DHT22;13462;50.764;4.332;2023-07-08T12:28:12;37.10;51.10
25582;DHT22;13462;50.764;4.332;2023-07-08T12:30:38;36.60;53.30
25582;DHT22;13462;50.764;4.332;2023-07-08T12:33:11;36.20;52.40
25582;DHT22;13462;50.764;4.332;2023-07-08T12:35:37;36.90;52.50
25582;DHT22;13462;50.764;4.332;2023-07-08T12:38:33;37.70;53.10
25582;DHT22;13462;50.764;4.332;2023-07-08T12:41:03;38.50;49.70
25582;DHT22;13462;50.764;4.332;2023-07-08T12:43:31;38.30;51.20
25582;DHT22;13462;50.764;4.332;2023-07-08T12:45:56;38.00;51.40
25582;DHT22;13462;50.764;4.332;2023-07-08T12:48:22;36.90;53.40
25582;DHT22;13462;50.764;4.332;2023-07-08T12:50:47;35.40;56.40
25582;DHT22;13462;50.764;4.332;2023-07-08T12:53:15;34.40;57.20
25582;DHT22;13462;50.764;4.332;2023-07-08T12:55:43;34.00;58.80
25582;DHT22;13462;50.764;4.332;2023-07-08T12:58:14;33.30;59.80
25582;DHT22;13462;50.764;4.332;2023-07-08T13:00:42;33.20;60.50
25582;DHT22;13462;50.764;4.332;2023-07-08T13:05:39;34.20;58.30
25582;DHT22;13462;50.764;4.332;2023-07-08T13:08:09;34.10;56.40
25582;DHT22;13462;50.764;4.332;2023-07-08T13:10:36;33.80;57.10
25582;DHT22;13462;50.764;4.332;2023-07-08T13:13:04;33.60;57.20
25582;DHT22;13462;50.764;4.332;2023-07-08T13:15:36;33.40;57.20
25582;DHT22;13462;50.764;4.332;2023-07-08T13:18:03;32.90;57.50
25582;DHT22;13462;50.764;4.332;2023-07-08T13:20:29;32.60;59.40
25582;DHT22;13462;50.764;4.332;2023-07-08T13:22:59;32.40;58.60
25582;DHT22;13462;50.764;4.332;2023-07-08T13:25:29;32.00;60.40
25582;DHT22;13462;50.764;4.332;2023-07-08T13:28:01;32.10;62.90
25582;DHT22;13462;50.764;4.332;2023-07-08T13:30:29;31.90;63.30
25582;DHT22;13462;50.764;4.332;2023-07-08T13:32:57;31.70;63.40
25582;DHT22;13462;50.764;4.332;2023-07-08T13:37:55;31.70;64.80
25582;DHT22;13462;50.764;4.332;2023-07-08T13:40:21;31.80;64.50
25582;DHT22;13462;50.764;4.332;2023-07-08T13:42:49;31.80;64.80
25582;DHT22;13462;50.764;4.332;2023-07-08T13:45:22;31.90;64.30
25582;DHT22;13462;50.764;4.332;2023-07-08T13:48:13;31.90;65.00
25582;DHT22;13462;50.764;4.332;2023-07-08T13:50:48;32.10;65.50
25582;DHT22;13462;50.764;4.332;2023-07-08T13:53:28;32.20;63.60
25582;DHT22;13462;50.764;4.332;2023-07-08T13:56:01;32.50;63.80
25582;DHT22;13462;50.764;4.332;2023-07-08T13:58:29;32.70;63.20
25582;DHT22;13462;50.764;4.332;2023-07-08T14:00:56;32.80;63.20
25582;DHT22;13462;50.764;4.332;2023-07-08T14:03:22;33.10;61.60
25582;DHT22;13462;50.764;4.332;2023-07-08T14:05:47;33.40;61.20
25582;DHT22;13462;50.764;4.332;2023-07-08T14:08:14;33.70;62.60
25582;DHT22;13462;50.764;4.332;2023-07-08T14:10:41;34.00;60.50
25582;DHT22;13462;50.764;4.332;2023-07-08T14:13:07;34.20;63.10
25582;DHT22;13462;50.764;4.332;2023-07-08T14:15:33;34.10;58.70
25582;DHT22;13462;50.764;4.332;2023-07-08T14:18:01;34.10;64.10
25582;DHT22;13462;50.764;4.332;2023-07-08T14:20:29;34.30;58.30
25582;DHT22;13462;50.764;4.332;2023-07-08T14:22:55;34.40;57.70
25582;DHT22;13462;50.764;4.332;2023-07-08T14:25:20;34.50;58.30
25582;DHT22;13462;50.764;4.332;2023-07-08T14:27:51;34.40;61.90
25582;DHT22;13462;50.764;4.332;2023-07-08T14:30:17;34.20;62.10
25582;DHT22;13462;50.764;4.332;2023-07-08T14:32:43;34.20;60.30
25582;DHT22;13462;50.764;4.332;2023-07-08T14:35:23;34.20;63.40
25582;DHT22;13462;50.764;4.332;2023-07-08T14:37:49;34.30;66.30
25582;DHT22;13462;50.764;4.332;2023-07-08T14:40:23;34.10;61.60
25582;DHT22;13462;50.764;4.332;2023-07-08T14:42:56;33.90;64.60
25582;DHT22;13462;50.764;4.332;2023-07-08T14:45:23;33.80;64.30
25582;DHT22;13462;50.764;4.332;2023-07-08T14:47:49;33.80;62.70
25582;DHT22;13462;50.764;4.332;2023-07-08T14:50:15;33.80;63.40
25582;DHT22;13462;50.764;4.332;2023-07-08T14:52:41;33.70;62.10
25582;DHT22;13462;50.764;4.332;2023-07-08T14:55:08;33.80;64.50
25582;DHT22;13462;50.764;4.332;2023-07-08T14:57:40;33.80;66.40
25582;DHT22;13462;50.764;4.332;2023-07-08T15:00:15;33.80;65.70
25582;DHT22;13462;50.764;4.332;2023-07-08T15:02:43;33.70;65.90
25582;DHT22;13462;50.764;4.332;2023-07-08T15:05:26;33.80;62.80
25582;DHT22;13462;50.764;4.332;2023-07-08T15:07:54;33.90;63.40
25582;DHT22;13462;50.764;4.332;2023-07-08T15:10:21;33.60;64.70
25582;DHT22;13462;50.764;4.332;2023-07-08T15:12:48;33.50;63.70
25582;DHT22;13462;50.764;4.332;2023-07-08T15:15:23;33.60;64.80
25582;DHT22;13462;50.764;4.332;2023-07-08T15:17:52;33.60;65.70
25582;DHT22;13462;50.764;4.332;2023-07-08T15:20:18;33.70;65.10
25582;DHT22;13462;50.764;4.332;2023-07-08T15:22:44;34.00;65.70
25582;DHT22;13462;50.764;4.332;2023-07-08T15:25:14;34.20;65.50
25582;DHT22;13462;50.764;4.332;2023-07-08T15:27:43;34.30;64.20
25582;DHT22;13462;50.764;4.332;2023-07-08T15:30:16;34.30;66.20
25582;DHT22;13462;50.764;4.332;2023-07-08T15:32:44;34.30;65.60
25582;DHT22;13462;50.764;4.332;2023-07-08T15:35:28;34.20;62.10
25582;DHT22;13462;50.764;4.332;2023-07-08T15:37:58;34.20;62.70
25582;DHT22;13462;50.764;4.332;2023-07-08T15:40:25;34.00;66.50
25582;DHT22;13462;50.764;4.332;2023-07-08T15:42:54;34.20;68.40
25582;DHT22;13462;50.764;4.332;2023-07-08T15:45:26;34.20;64.40
25582;DHT22;13462;50.764;4.332;2023-07-08T15:47:53;34.00;63.00
25582;DHT22;13462;50.764;4.332;2023-07-08T15:50:21;33.90;67.10
25582;DHT22;13462;50.764;4.332;2023-07-08T15:52:47;34.10;66.60
25582;DHT22;13462;50.764;4.332;2023-07-08T15:55:23;34.20;66.00
25582;DHT22;13462;50.764;4.332;2023-07-08T15:57:57;34.00;65.40
25582;DHT22;13462;50.764;4.332;2023-07-08T16:00:28;33.80;64.20
25582;DHT22;13462;50.764;4.332;2023-07-08T16:02:58;33.70;64.60
25582;DHT22;13462;50.764;4.332;2023-07-08T16:05:25;33.40;66.70
25582;DHT22;13462;50.764;4.332;2023-07-08T16:07:52;33.40;66.80
25582;DHT22;13462;50.764;4.332;2023-07-08T16:10:19;33.40;67.60
25582;DHT22;13462;50.764;4.332;2023-07-08T16:12:46;33.40;66.90
25582;DHT22;13462;50.764;4.332;2023-07-08T16:15:18;33.30;66.70
25582;DHT22;13462;50.764;4.332;2023-07-08T16:17:44;33.20;67.00
25582;DHT22;13462;50.764;4.332;2023-07-08T16:20:18;33.10;66.90
25582;DHT22;13462;50.764;4.332;2023-07-08T16:22:44;32.70;68.10
25582;DHT22;13462;50.764;4.332;2023-07-08T16:25:15;32.50;67.80
25582;DHT22;13462;50.764;4.332;2023-07-08T16:27:43;32.40;68.00
25582;DHT22;13462;50.764;4.332;2023-07-08T16:30:15;32.40;68.70
25582;DHT22;13462;50.764;4.332;2023-07-08T16:32:41;32.60;67.50
25582;DHT22;13462;50.764;4.332;2023-07-08T16:35:10;32.70;70.00
25582;DHT22;13462;50.764;4.332;2023-07-08T16:37:36;32.70;67.50
25582;DHT22;13462;50.764;4.332;2023-07-08T16:40:01;32.50;66.00
25582;DHT22;13462;50.764;4.332;2023-07-08T16:42:28;32.50;65.60
25582;DHT22;13462;50.764;4.332;2023-07-08T16:44:54;32.30;65.40
25582;DHT22;13462;50.764;4.332;2023-07-08T16:47:19;32.20;66.40
25582;DHT22;13462;50.764;4.332;2023-07-08T16:49:45;32.20;66.60
25582;DHT22;13462;50.764;4.332;2023-07-08T16:52:13;32.20;68.20
25582;DHT22;13462;50.764;4.332;2023-07-08T16:54:40;32.00;67.10